sensor_id;sensor_type;location;lat;lon;timestamp;P1;durP1;ratioP1;P2;durP2;ratioP2
16892;SDS011;8563;52.242;9.098;2024-02-26T00:01:24;2.27;;;1.60;;
16892;SDS011;8563;52.242;9.098;2024-02-26T00:03:57;2.47;;;1.67;;
16892;SDS011;8563;52.242;9.098;2024-02-26T00:06:29;2.43;;;1.80;;
16892;SDS011;8563;52.242;9.098;2024-02-26T00:09:02;3.37;;;1.73;;
16892;SDS011;8563;52.242;9.098;2024-02-26T00:11:36;2.90;;;2.30;;
16892;SDS011;8563;52.242;9.098;2024-02-26T00:14:08;2.10;;;1.83;;
16892;SDS011;8563;52.242;9.098;2024-02-26T00:16:42;2.77;;;1.90;;
16892;SDS011;8563;52.242;9.098;2024-02-26T00:19:15;2.97;;;1.93;;
16892;SDS011;8563;52.242;9.098;2024-02-26T00:21:47;2.50;;;1.67;;
16892;SDS011;8563;52.242;9.098;2024-02-26T00:24:20;3.17;;;1.60;;
16892;SDS011;8563;52.242;9.098;2024-02-26T00:26:52;2.67;;;1.50;;
16892;SDS011;8563;52.242;9.098;2024-02-26T00:29:24;2.03;;;1.53;;
16892;SDS011;8563;52.242;9.098;2024-02-26T00:31:58;2.20;;;1.37;;
16892;SDS011;8563;52.242;9.098;2024-02-26T00:34:30;2.07;;;1.30;;
16892;SDS011;8563;52.242;9.098;2024-02-26T00:37:03;1.77;;;1.20;;
16892;SDS011;8563;52.242;9.098;2024-02-26T00:39:35;1.87;;;1.27;;
16892;SDS011;8563;52.242;9.098;2024-02-26T00:42:07;1.70;;;1.20;;
16892;SDS011;8563;52.242;9.098;2024-02-26T00:44:40;2.33;;;1.03;;
16892;SDS011;8563;52.242;9.098;2024-02-26T00:47:13;1.70;;;1.27;;
16892;SDS011;8563;52.242;9.098;2024-02-26T00:49:46;1.67;;;1.07;;
16892;SDS011;8563;52.242;9.098;2024-02-26T00:52:18;1.40;;;1.20;;
16892;SDS011;8563;52.242;9.098;2024-02-26T00:54:50;3.13;;;1.00;;
16892;SDS011;8563;52.242;9.098;2024-02-26T00:57:23;1.83;;;1.07;;
16892;SDS011;8563;52.242;9.098;2024-02-26T00:59:55;1.17;;;0.93;;
16892;SDS011;8563;52.242;9.098;2024-02-26T01:02:29;3.73;;;1.03;;
16892;SDS011;8563;52.242;9.098;2024-02-26T01:05:01;3.07;;;1.00;;
16892;SDS011;8563;52.242;9.098;2024-02-26T01:07:33;1.67;;;1.20;;
16892;SDS011;8563;52.242;9.098;2024-02-26T01:10:06;1.67;;;0.93;;
16892;SDS011;8563;52.242;9.098;2024-02-26T01:12:39;1.70;;;1.13;;
16892;SDS011;8563;52.242;9.098;2024-02-26T01:15:11;1.47;;;0.83;;
16892;SDS011;8563;52.242;9.098;2024-02-26T01:17:45;2.50;;;1.20;;
16892;SDS011;8563;52.242;9.098;2024-02-26T01:20:17;1.70;;;1.03;;
16892;SDS011;8563;52.242;9.098;2024-02-26T01:22:49;1.93;;;1.10;;
16892;SDS011;8563;52.242;9.098;2024-02-26T01:25:21;1.20;;;1.03;;
16892;SDS011;8563;52.242;9.098;2024-02-26T01:27:53;1.40;;;0.90;;
16892;SDS011;8563;52.242;9.098;2024-02-26T01:30:25;1.10;;;0.80;;
16892;SDS011;8563;52.242;9.098;2024-02-26T01:32:59;1.70;;;1.10;;
16892;SDS011;8563;52.242;9.098;2024-02-26T01:35:31;1.60;;;1.23;;
16892;SDS011;8563;52.242;9.098;2024-02-26T01:38:03;1.50;;;1.10;;
16892;SDS011;8563;52.242;9.098;2024-02-26T01:40:36;2.60;;;1.10;;
16892;SDS011;8563;52.242;9.098;2024-02-26T01:43:08;1.27;;;1.10;;
16892;SDS011;8563;52.242;9.098;2024-02-26T01:45:40;1.73;;;0.83;;
16892;SDS011;8563;52.242;9.098;2024-02-26T01:48:14;1.83;;;0.97;;
16892;SDS011;8563;52.242;9.098;2024-02-26T01:50:46;1.40;;;1.10;;
16892;SDS011;8563;52.242;9.098;2024-02-26T01:53:19;0.93;;;0.70;;
16892;SDS011;8563;52.242;9.098;2024-02-26T01:55:52;0.97;;;0.77;;
16892;SDS011;8563;52.242;9.098;2024-02-26T01:58:24;1.40;;;0.90;;
16892;SDS011;8563;52.242;9.098;2024-02-26T02:00:56;1.33;;;0.77;;
16892;SDS011;8563;52.242;9.098;2024-02-26T02:03:31;1.07;;;0.80;;
16892;SDS011;8563;52.242;9.098;2024-02-26T02:06:03;1.47;;;0.80;;
16892;SDS011;8563;52.242;9.098;2024-02-26T02:08:36;1.17;;;0.83;;
16892;SDS011;8563;52.242;9.098;2024-02-26T02:11:10;1.03;;;0.93;;
16892;SDS011;8563;52.242;9.098;2024-02-26T02:13:43;1.33;;;1.10;;
16892;SDS011;8563;52.242;9.098;2024-02-26T02:16:15;3.00;;;1.10;;
16892;SDS011;8563;52.242;9.098;2024-02-26T02:18:49;2.00;;;0.87;;
16892;SDS011;8563;52.242;9.098;2024-02-26T02:21:22;2.40;;;0.90;;
16892;SDS011;8563;52.242;9.098;2024-02-26T02:23:55;2.40;;;0.80;;
16892;SDS011;8563;52.242;9.098;2024-02-26T02:26:27;0.93;;;0.50;;
16892;SDS011;8563;52.242;9.098;2024-02-26T02:28:59;0.90;;;0.60;;
16892;SDS011;8563;52.242;9.098;2024-02-26T02:31:32;1.47;;;0.70;;
16892;SDS011;8563;52.242;9.098;2024-02-26T02:34:05;0.87;;;0.70;;
16892;SDS011;8563;52.242;9.098;2024-02-26T02:36:49;2.23;;;1.10;;
16892;SDS011;8563;52.242;9.098;2024-02-26T02:39:23;1.20;;;0.80;;
16892;SDS011;8563;52.242;9.098;2024-02-26T02:41:55;1.10;;;0.70;;
16892;SDS011;8563;52.242;9.098;2024-02-26T02:44:27;0.80;;;0.60;;
16892;SDS011;8563;52.242;9.098;2024-02-26T02:46:59;0.80;;;0.60;;
16892;SDS011;8563;52.242;9.098;2024-02-26T02:49:31;1.20;;;0.60;;
16892;SDS011;8563;52.242;9.098;2024-02-26T02:52:05;1.63;;;0.90;;
16892;SDS011;8563;52.242;9.098;2024-02-26T02:54:37;0.80;;;0.63;;
16892;SDS011;8563;52.242;9.098;2024-02-26T02:57:12;1.40;;;0.73;;
16892;SDS011;8563;52.242;9.098;2024-02-26T02:59:44;3.20;;;0.90;;
16892;SDS011;8563;52.242;9.098;2024-02-26T03:02:16;1.27;;;1.00;;
16892;SDS011;8563;52.242;9.098;2024-02-26T03:04:48;1.93;;;0.90;;
16892;SDS011;8563;52.242;9.098;2024-02-26T03:07:22;1.47;;;0.93;;
16892;SDS011;8563;52.242;9.098;2024-02-26T03:09:54;1.83;;;0.90;;
16892;SDS011;8563;52.242;9.098;2024-02-26T03:12:26;1.13;;;0.80;;
16892;SDS011;8563;52.242;9.098;2024-02-26T03:14:59;1.70;;;1.00;;
16892;SDS011;8563;52.242;9.098;2024-02-26T03:17:33;1.40;;;1.00;;
16892;SDS011;8563;52.242;9.098;2024-02-26T03:20:05;1.50;;;1.30;;
16892;SDS011;8563;52.242;9.098;2024-02-26T03:22:41;1.40;;;1.10;;
16892;SDS011;8563;52.242;9.098;2024-02-26T03:25:13;1.93;;;1.00;;
16892;SDS011;8563;52.242;9.098;2024-02-26T03:27:46;1.27;;;1.17;;
16892;SDS011;8563;52.242;9.098;2024-02-26T03:30:18;1.60;;;1.40;;
16892;SDS011;8563;52.242;9.098;2024-02-26T03:32:50;2.17;;;1.30;;
16892;SDS011;8563;52.242;9.098;2024-02-26T03:35:22;1.97;;;1.17;;
16892;SDS011;8563;52.242;9.098;2024-02-26T03:37:56;1.30;;;1.10;;
16892;SDS011;8563;52.242;9.098;2024-02-26T03:40:28;2.47;;;1.20;;
16892;SDS011;8563;52.242;9.098;2024-02-26T03:43:00;1.20;;;1.00;;
16892;SDS011;8563;52.242;9.098;2024-02-26T03:45:33;2.20;;;1.40;;
16892;SDS011;8563;52.242;9.098;2024-02-26T03:48:05;2.83;;;1.50;;
16892;SDS011;8563;52.242;9.098;2024-02-26T03:50:38;1.70;;;1.20;;
16892;SDS011;8563;52.242;9.098;2024-02-26T03:53:12;1.40;;;1.20;;
16892;SDS011;8563;52.242;9.098;2024-02-26T03:55:44;1.67;;;1.10;;
16892;SDS011;8563;52.242;9.098;2024-02-26T03:58:16;2.37;;;1.20;;
16892;SDS011;8563;52.242;9.098;2024-02-26T04:00:48;2.47;;;1.20;;
16892;SDS011;8563;52.242;9.098;2024-02-26T04:03:20;2.33;;;1.40;;
16892;SDS011;8563;52.242;9.098;2024-02-26T04:05:53;3.00;;;1.40;;
16892;SDS011;8563;52.242;9.098;2024-02-26T04:08:26;1.97;;;1.40;;
16892;SDS011;8563;52.242;9.098;2024-02-26T04:10:58;1.90;;;1.20;;
16892;SDS011;8563;52.242;9.098;2024-02-26T04:13:31;2.70;;;1.10;;
16892;SDS011;8563;52.242;9.098;2024-02-26T04:16:03;1.73;;;1.30;;
16892;SDS011;8563;52.242;9.098;2024-02-26T04:18:36;1.77;;;1.37;;
16892;SDS011;8563;52.242;9.098;2024-02-26T04:21:09;1.63;;;1.30;;
16892;SDS011;8563;52.242;9.098;2024-02-26T04:23:42;2.90;;;1.50;;
16892;SDS011;8563;52.242;9.098;2024-02-26T04:26:14;2.00;;;1.27;;
16892;SDS011;8563;52.242;9.098;2024-02-26T04:28:46;2.87;;;1.60;;
16892;SDS011;8563;52.242;9.098;2024-02-26T04:31:19;1.53;;;1.23;;
16892;SDS011;8563;52.242;9.098;2024-02-26T04:33:51;2.80;;;1.40;;
16892;SDS011;8563;52.242;9.098;2024-02-26T04:36:23;2.20;;;1.40;;
16892;SDS011;8563;52.242;9.098;2024-02-26T04:38:57;2.23;;;1.30;;
16892;SDS011;8563;52.242;9.098;2024-02-26T04:41:30;2.07;;;1.43;;
16892;SDS011;8563;52.242;9.098;2024-02-26T04:44:02;1.63;;;1.50;;
16892;SDS011;8563;52.242;9.098;2024-02-26T04:46:34;1.63;;;1.40;;
16892;SDS011;8563;52.242;9.098;2024-02-26T04:49:06;2.20;;;1.43;;
16892;SDS011;8563;52.242;9.098;2024-02-26T04:51:38;1.57;;;1.47;;
16892;SDS011;8563;52.242;9.098;2024-02-26T04:54:12;2.00;;;1.70;;
16892;SDS011;8563;52.242;9.098;2024-02-26T04:56:44;2.70;;;2.40;;
16892;SDS011;8563;52.242;9.098;2024-02-26T04:59:17;2.67;;;2.20;;
16892;SDS011;8563;52.242;9.098;2024-02-26T05:01:49;3.83;;;2.30;;
16892;SDS011;8563;52.242;9.098;2024-02-26T05:04:23;3.83;;;2.37;;
16892;SDS011;8563;52.242;9.098;2024-02-26T05:06:55;2.73;;;2.20;;
16892;SDS011;8563;52.242;9.098;2024-02-26T05:09:28;2.70;;;1.80;;
16892;SDS011;8563;52.242;9.098;2024-02-26T05:12:01;3.80;;;2.10;;
16892;SDS011;8563;52.242;9.098;2024-02-26T05:14:34;2.87;;;2.30;;
16892;SDS011;8563;52.242;9.098;2024-02-26T05:17:12;2.03;;;1.83;;
16892;SDS011;8563;52.242;9.098;2024-02-26T05:19:44;2.30;;;2.10;;
16892;SDS011;8563;52.242;9.098;2024-02-26T05:22:16;2.13;;;1.73;;
16892;SDS011;8563;52.242;9.098;2024-02-26T05:24:50;2.37;;;2.17;;
16892;SDS011;8563;52.242;9.098;2024-02-26T05:27:22;3.17;;;2.87;;
16892;SDS011;8563;52.242;9.098;2024-02-26T05:29:54;3.23;;;2.43;;
16892;SDS011;8563;52.242;9.098;2024-02-26T05:32:27;4.37;;;2.60;;
16892;SDS011;8563;52.242;9.098;2024-02-26T05:34:59;2.40;;;2.20;;
16892;SDS011;8563;52.242;9.098;2024-02-26T05:37:33;5.30;;;2.80;;
16892;SDS011;8563;52.242;9.098;2024-02-26T05:40:07;4.07;;;2.90;;
16892;SDS011;8563;52.242;9.098;2024-02-26T05:42:40;2.93;;;2.60;;
16892;SDS011;8563;52.242;9.098;2024-02-26T05:45:15;3.50;;;2.67;;
16892;SDS011;8563;52.242;9.098;2024-02-26T05:47:47;2.43;;;2.17;;
16892;SDS011;8563;52.242;9.098;2024-02-26T05:50:20;2.77;;;2.30;;
16892;SDS011;8563;52.242;9.098;2024-02-26T05:52:52;2.83;;;2.60;;
16892;SDS011;8563;52.242;9.098;2024-02-26T05:55:26;3.70;;;3.00;;
16892;SDS011;8563;52.242;9.098;2024-02-26T05:57:58;3.67;;;2.70;;
16892;SDS011;8563;52.242;9.098;2024-02-26T06:00:30;3.93;;;3.13;;
16892;SDS011;8563;52.242;9.098;2024-02-26T06:03:03;3.13;;;2.83;;
16892;SDS011;8563;52.242;9.098;2024-02-26T06:05:35;3.03;;;2.73;;
16892;SDS011;8563;52.242;9.098;2024-02-26T06:08:07;4.67;;;3.43;;
16892;SDS011;8563;52.242;9.098;2024-02-26T06:10:41;3.87;;;3.47;;
16892;SDS011;8563;52.242;9.098;2024-02-26T06:13:13;5.40;;;2.80;;
16892;SDS011;8563;52.242;9.098;2024-02-26T06:15:45;4.10;;;3.13;;
16892;SDS011;8563;52.242;9.098;2024-02-26T06:18:18;3.50;;;3.20;;
16892;SDS011;8563;52.242;9.098;2024-02-26T06:20:50;3.87;;;2.80;;
16892;SDS011;8563;52.242;9.098;2024-02-26T06:23:22;3.47;;;2.70;;
16892;SDS011;8563;52.242;9.098;2024-02-26T06:25:56;3.37;;;3.07;;
16892;SDS011;8563;52.242;9.098;2024-02-26T06:28:28;3.30;;;3.00;;
16892;SDS011;8563;52.242;9.098;2024-02-26T06:31:02;5.03;;;3.27;;
16892;SDS011;8563;52.242;9.098;2024-02-26T06:33:36;4.83;;;3.37;;
16892;SDS011;8563;52.242;9.098;2024-02-26T06:36:08;3.97;;;3.20;;
16892;SDS011;8563;52.242;9.098;2024-02-26T06:38:40;3.50;;;3.20;;
16892;SDS011;8563;52.242;9.098;2024-02-26T06:41:14;4.40;;;3.13;;
16892;SDS011;8563;52.242;9.098;2024-02-26T06:43:46;4.00;;;2.90;;
16892;SDS011;8563;52.242;9.098;2024-02-26T06:46:18;4.50;;;3.23;;
16892;SDS011;8563;52.242;9.098;2024-02-26T06:48:51;3.77;;;2.90;;
16892;SDS011;8563;52.242;9.098;2024-02-26T06:51:23;5.97;;;3.60;;
16892;SDS011;8563;52.242;9.098;2024-02-26T06:53:56;4.43;;;3.23;;
16892;SDS011;8563;52.242;9.098;2024-02-26T06:56:29;4.40;;;3.20;;
16892;SDS011;8563;52.242;9.098;2024-02-26T06:59:01;5.93;;;3.10;;
16892;SDS011;8563;52.242;9.098;2024-02-26T07:01:33;4.40;;;3.70;;
16892;SDS011;8563;52.242;9.098;2024-02-26T07:04:05;4.40;;;3.50;;
16892;SDS011;8563;52.242;9.098;2024-02-26T07:06:38;5.97;;;3.27;;
16892;SDS011;8563;52.242;9.098;2024-02-26T07:09:10;6.67;;;3.77;;
16892;SDS011;8563;52.242;9.098;2024-02-26T07:11:44;3.67;;;3.23;;
16892;SDS011;8563;52.242;9.098;2024-02-26T07:14:16;4.57;;;3.47;;
16892;SDS011;8563;52.242;9.098;2024-02-26T07:16:48;4.07;;;3.40;;
16892;SDS011;8563;52.242;9.098;2024-02-26T07:19:21;5.53;;;4.00;;
16892;SDS011;8563;52.242;9.098;2024-02-26T07:21:53;4.40;;;3.50;;
16892;SDS011;8563;52.242;9.098;2024-02-26T07:24:25;5.43;;;3.93;;
16892;SDS011;8563;52.242;9.098;2024-02-26T07:26:59;5.17;;;4.60;;
16892;SDS011;8563;52.242;9.098;2024-02-26T07:29:31;5.50;;;4.30;;
16892;SDS011;8563;52.242;9.098;2024-02-26T07:32:04;5.50;;;4.63;;
16892;SDS011;8563;52.242;9.098;2024-02-26T07:34:37;6.37;;;4.73;;
16892;SDS011;8563;52.242;9.098;2024-02-26T07:37:12;5.70;;;4.70;;
16892;SDS011;8563;52.242;9.098;2024-02-26T07:39:44;5.60;;;4.47;;
16892;SDS011;8563;52.242;9.098;2024-02-26T07:42:17;4.80;;;3.53;;
16892;SDS011;8563;52.242;9.098;2024-02-26T07:44:50;4.27;;;3.87;;
16892;SDS011;8563;52.242;9.098;2024-02-26T07:47:23;4.23;;;3.83;;
16892;SDS011;8563;52.242;9.098;2024-02-26T07:49:55;5.53;;;3.77;;
16892;SDS011;8563;52.242;9.098;2024-02-26T07:52:27;4.47;;;3.37;;
16892;SDS011;8563;52.242;9.098;2024-02-26T07:54:59;3.47;;;2.87;;
16892;SDS011;8563;52.242;9.098;2024-02-26T07:57:33;4.47;;;2.97;;
16892;SDS011;8563;52.242;9.098;2024-02-26T08:00:06;5.47;;;2.87;;
16892;SDS011;8563;52.242;9.098;2024-02-26T08:02:39;3.37;;;2.73;;
16892;SDS011;8563;52.242;9.098;2024-02-26T08:05:11;3.97;;;2.83;;
16892;SDS011;8563;52.242;9.098;2024-02-26T08:07:44;3.90;;;3.07;;
16892;SDS011;8563;52.242;9.098;2024-02-26T08:10:16;3.13;;;2.73;;
16892;SDS011;8563;52.242;9.098;2024-02-26T08:12:50;3.17;;;2.43;;
16892;SDS011;8563;52.242;9.098;2024-02-26T08:15:22;3.57;;;2.80;;
16892;SDS011;8563;52.242;9.098;2024-02-26T08:17:54;2.90;;;2.47;;
16892;SDS011;8563;52.242;9.098;2024-02-26T08:20:26;3.20;;;2.30;;
16892;SDS011;8563;52.242;9.098;2024-02-26T08:22:59;3.47;;;2.33;;
16892;SDS011;8563;52.242;9.098;2024-02-26T08:25:31;2.90;;;2.20;;
16892;SDS011;8563;52.242;9.098;2024-02-26T08:28:04;2.53;;;2.00;;
16892;SDS011;8563;52.242;9.098;2024-02-26T08:30:37;3.00;;;2.23;;
16892;SDS011;8563;52.242;9.098;2024-02-26T08:33:09;2.57;;;2.00;;
16892;SDS011;8563;52.242;9.098;2024-02-26T08:35:41;3.13;;;1.93;;
16892;SDS011;8563;52.242;9.098;2024-02-26T08:38:14;3.13;;;1.97;;
16892;SDS011;8563;52.242;9.098;2024-02-26T08:40:46;2.87;;;1.80;;
16892;SDS011;8563;52.242;9.098;2024-02-26T08:43:19;1.80;;;1.60;;
16892;SDS011;8563;52.242;9.098;2024-02-26T08:45:52;2.67;;;1.67;;
16892;SDS011;8563;52.242;9.098;2024-02-26T08:48:24;3.73;;;1.60;;
16892;SDS011;8563;52.242;9.098;2024-02-26T08:50:57;2.90;;;1.40;;
16892;SDS011;8563;52.242;9.098;2024-02-26T08:53:29;1.77;;;1.50;;
16892;SDS011;8563;52.242;9.098;2024-02-26T08:56:01;2.27;;;1.70;;
16892;SDS011;8563;52.242;9.098;2024-02-26T08:58:35;1.90;;;1.60;;
16892;SDS011;8563;52.242;9.098;2024-02-26T09:01:07;2.30;;;1.50;;
16892;SDS011;8563;52.242;9.098;2024-02-26T09:03:39;1.60;;;1.20;;
16892;SDS011;8563;52.242;9.098;2024-02-26T09:06:14;2.10;;;1.53;;
16892;SDS011;8563;52.242;9.098;2024-02-26T09:08:46;2.43;;;1.83;;
16892;SDS011;8563;52.242;9.098;2024-02-26T09:11:18;2.67;;;1.73;;
16892;SDS011;8563;52.242;9.098;2024-02-26T09:13:52;1.90;;;1.60;;
16892;SDS011;8563;52.242;9.098;2024-02-26T09:16:24;2.47;;;1.73;;
16892;SDS011;8563;52.242;9.098;2024-02-26T09:18:57;3.90;;;1.70;;
16892;SDS011;8563;52.242;9.098;2024-02-26T09:21:29;2.20;;;1.70;;
16892;SDS011;8563;52.242;9.098;2024-02-26T09:24:01;3.23;;;1.90;;
16892;SDS011;8563;52.242;9.098;2024-02-26T09:26:34;3.10;;;2.00;;
16892;SDS011;8563;52.242;9.098;2024-02-26T09:29:08;2.20;;;2.00;;
16892;SDS011;8563;52.242;9.098;2024-02-26T09:31:40;2.87;;;2.20;;
16892;SDS011;8563;52.242;9.098;2024-02-26T09:34:12;4.23;;;2.30;;
16892;SDS011;8563;52.242;9.098;2024-02-26T09:36:45;2.87;;;2.40;;
16892;SDS011;8563;52.242;9.098;2024-02-26T09:39:17;3.63;;;2.50;;
16892;SDS011;8563;52.242;9.098;2024-02-26T09:41:52;4.73;;;2.50;;
16892;SDS011;8563;52.242;9.098;2024-02-26T09:44:25;3.30;;;2.80;;
16892;SDS011;8563;52.242;9.098;2024-02-26T09:47:00;2.40;;;2.20;;
16892;SDS011;8563;52.242;9.098;2024-02-26T09:49:33;3.10;;;2.80;;
16892;SDS011;8563;52.242;9.098;2024-02-26T09:52:07;3.73;;;2.70;;
16892;SDS011;8563;52.242;9.098;2024-02-26T09:54:40;3.53;;;2.70;;
16892;SDS011;8563;52.242;9.098;2024-02-26T09:57:14;3.93;;;2.57;;
16892;SDS011;8563;52.242;9.098;2024-02-26T09:59:49;5.07;;;3.10;;
16892;SDS011;8563;52.242;9.098;2024-02-26T10:02:22;5.53;;;2.70;;
16892;SDS011;8563;52.242;9.098;2024-02-26T10:04:55;3.27;;;2.80;;
16892;SDS011;8563;52.242;9.098;2024-02-26T10:07:28;5.13;;;3.30;;
16892;SDS011;8563;52.242;9.098;2024-02-26T10:10:01;3.73;;;2.77;;
16892;SDS011;8563;52.242;9.098;2024-02-26T10:12:33;5.63;;;3.00;;
16892;SDS011;8563;52.242;9.098;2024-02-26T10:15:07;3.90;;;2.87;;
16892;SDS011;8563;52.242;9.098;2024-02-26T10:17:40;3.97;;;2.93;;
16892;SDS011;8563;52.242;9.098;2024-02-26T10:20:13;4.13;;;3.20;;
16892;SDS011;8563;52.242;9.098;2024-02-26T10:22:48;3.43;;;2.50;;
16892;SDS011;8563;52.242;9.098;2024-02-26T10:25:20;2.97;;;2.60;;
16892;SDS011;8563;52.242;9.098;2024-02-26T10:27:52;3.20;;;2.83;;
16892;SDS011;8563;52.242;9.098;2024-02-26T10:30:27;3.20;;;2.63;;
16892;SDS011;8563;52.242;9.098;2024-02-26T10:33:00;5.87;;;3.10;;
16892;SDS011;8563;52.242;9.098;2024-02-26T10:35:32;3.93;;;3.07;;
16892;SDS011;8563;52.242;9.098;2024-02-26T10:38:09;3.50;;;2.80;;
16892;SDS011;8563;52.242;9.098;2024-02-26T10:40:41;4.03;;;3.03;;
16892;SDS011;8563;52.242;9.098;2024-02-26T10:43:13;5.37;;;3.33;;
16892;SDS011;8563;52.242;9.098;2024-02-26T10:45:47;3.73;;;2.90;;
16892;SDS011;8563;52.242;9.098;2024-02-26T10:48:20;4.40;;;3.00;;
16892;SDS011;8563;52.242;9.098;2024-02-26T10:50:52;3.20;;;2.90;;
16892;SDS011;8563;52.242;9.098;2024-02-26T10:53:28;3.57;;;2.97;;
16892;SDS011;8563;52.242;9.098;2024-02-26T10:56:03;3.20;;;2.60;;
16892;SDS011;8563;52.242;9.098;2024-02-26T10:58:36;4.30;;;3.40;;
16892;SDS011;8563;52.242;9.098;2024-02-26T11:01:10;2.97;;;2.50;;
16892;SDS011;8563;52.242;9.098;2024-02-26T11:03:43;4.47;;;3.00;;
16892;SDS011;8563;52.242;9.098;2024-02-26T11:06:16;4.23;;;2.77;;
16892;SDS011;8563;52.242;9.098;2024-02-26T11:08:49;3.30;;;2.50;;
16892;SDS011;8563;52.242;9.098;2024-02-26T11:11:22;3.00;;;2.50;;
16892;SDS011;8563;52.242;9.098;2024-02-26T11:13:58;2.97;;;2.60;;
16892;SDS011;8563;52.242;9.098;2024-02-26T11:16:34;2.77;;;2.30;;
16892;SDS011;8563;52.242;9.098;2024-02-26T11:19:08;3.30;;;2.33;;
16892;SDS011;8563;52.242;9.098;2024-02-26T11:21:41;3.10;;;2.50;;
16892;SDS011;8563;52.242;9.098;2024-02-26T11:24:13;3.60;;;2.40;;
16892;SDS011;8563;52.242;9.098;2024-02-26T11:26:49;3.97;;;2.20;;
16892;SDS011;8563;52.242;9.098;2024-02-26T11:29:32;2.07;;;1.90;;
16892;SDS011;8563;52.242;9.098;2024-02-26T11:32:10;4.50;;;2.47;;
16892;SDS011;8563;52.242;9.098;2024-02-26T11:34:42;2.87;;;2.03;;
16892;SDS011;8563;52.242;9.098;2024-02-26T11:37:15;3.43;;;2.47;;
16892;SDS011;8563;52.242;9.098;2024-02-26T11:39:48;3.03;;;2.30;;
16892;SDS011;8563;52.242;9.098;2024-02-26T11:42:24;2.37;;;2.17;;
16892;SDS011;8563;52.242;9.098;2024-02-26T11:44:56;2.50;;;2.27;;
16892;SDS011;8563;52.242;9.098;2024-02-26T11:47:32;4.03;;;2.33;;
16892;SDS011;8563;52.242;9.098;2024-02-26T11:53:24;2.87;;;2.17;;
16892;SDS011;8563;52.242;9.098;2024-02-26T11:59:01;2.90;;;2.20;;
16892;SDS011;8563;52.242;9.098;2024-02-26T12:01:35;2.87;;;2.10;;
16892;SDS011;8563;52.242;9.098;2024-02-26T12:04:16;3.10;;;1.90;;
16892;SDS011;8563;52.242;9.098;2024-02-26T12:06:51;2.63;;;1.93;;
16892;SDS011;8563;52.242;9.098;2024-02-26T12:09:30;2.20;;;2.00;;
16892;SDS011;8563;52.242;9.098;2024-02-26T12:12:03;2.93;;;1.73;;
16892;SDS011;8563;52.242;9.098;2024-02-26T12:14:40;5.30;;;2.10;;
16892;SDS011;8563;52.242;9.098;2024-02-26T12:17:25;3.97;;;2.13;;
16892;SDS011;8563;52.242;9.098;2024-02-26T12:20:09;2.07;;;1.80;;
16892;SDS011;8563;52.242;9.098;2024-02-26T12:22:41;3.00;;;2.23;;
16892;SDS011;8563;52.242;9.098;2024-02-26T12:25:16;4.27;;;2.00;;
16892;SDS011;8563;52.242;9.098;2024-02-26T12:27:51;3.00;;;2.10;;
16892;SDS011;8563;52.242;9.098;2024-02-26T12:30:23;2.50;;;1.93;;
16892;SDS011;8563;52.242;9.098;2024-02-26T12:32:56;2.67;;;1.90;;
16892;SDS011;8563;52.242;9.098;2024-02-26T12:35:32;2.53;;;1.83;;
16892;SDS011;8563;52.242;9.098;2024-02-26T12:38:04;2.30;;;2.00;;
16892;SDS011;8563;52.242;9.098;2024-02-26T12:40:36;3.73;;;2.10;;
16892;SDS011;8563;52.242;9.098;2024-02-26T12:43:08;3.20;;;1.97;;
16892;SDS011;8563;52.242;9.098;2024-02-26T12:45:43;2.90;;;1.90;;
16892;SDS011;8563;52.242;9.098;2024-02-26T12:48:16;2.33;;;1.90;;
16892;SDS011;8563;52.242;9.098;2024-02-26T12:50:50;4.10;;;2.00;;
16892;SDS011;8563;52.242;9.098;2024-02-26T12:53:22;3.27;;;2.20;;
16892;SDS011;8563;52.242;9.098;2024-02-26T12:55:54;3.20;;;2.10;;
16892;SDS011;8563;52.242;9.098;2024-02-26T12:58:27;3.23;;;2.40;;
16892;SDS011;8563;52.242;9.098;2024-02-26T13:01:01;3.17;;;2.33;;
16892;SDS011;8563;52.242;9.098;2024-02-26T13:03:33;6.17;;;2.07;;
16892;SDS011;8563;52.242;9.098;2024-02-26T13:06:08;2.80;;;2.10;;
16892;SDS011;8563;52.242;9.098;2024-02-26T13:08:41;3.50;;;2.40;;
16892;SDS011;8563;52.242;9.098;2024-02-26T13:11:13;3.33;;;2.43;;
16892;SDS011;8563;52.242;9.098;2024-02-26T13:13:47;2.47;;;2.00;;
16892;SDS011;8563;52.242;9.098;2024-02-26T13:16:23;2.83;;;2.20;;
16892;SDS011;8563;52.242;9.098;2024-02-26T13:18:56;2.53;;;2.00;;
16892;SDS011;8563;52.242;9.098;2024-02-26T13:21:29;2.97;;;2.20;;
16892;SDS011;8563;52.242;9.098;2024-02-26T13:24:01;3.50;;;2.17;;
16892;SDS011;8563;52.242;9.098;2024-02-26T13:26:35;2.73;;;2.13;;
16892;SDS011;8563;52.242;9.098;2024-02-26T13:29:07;3.00;;;2.40;;
16892;SDS011;8563;52.242;9.098;2024-02-26T13:31:39;3.53;;;2.20;;
16892;SDS011;8563;52.242;9.098;2024-02-26T13:34:11;2.30;;;2.10;;
16892;SDS011;8563;52.242;9.098;2024-02-26T13:36:56;2.90;;;2.20;;
16892;SDS011;8563;52.242;9.098;2024-02-26T13:39:28;3.93;;;2.30;;
16892;SDS011;8563;52.242;9.098;2024-02-26T13:42:00;3.07;;;2.40;;
16892;SDS011;8563;52.242;9.098;2024-02-26T13:44:32;2.83;;;2.40;;
16892;SDS011;8563;52.242;9.098;2024-02-26T13:47:09;3.30;;;2.20;;
16892;SDS011;8563;52.242;9.098;2024-02-26T13:49:41;5.13;;;2.40;;
16892;SDS011;8563;52.242;9.098;2024-02-26T13:52:15;2.43;;;2.10;;
16892;SDS011;8563;52.242;9.098;2024-02-26T13:54:47;2.63;;;1.93;;
16892;SDS011;8563;52.242;9.098;2024-02-26T13:57:19;3.10;;;2.20;;
16892;SDS011;8563;52.242;9.098;2024-02-26T13:59:52;3.27;;;2.00;;
16892;SDS011;8563;52.242;9.098;2024-02-26T14:02:24;3.10;;;2.30;;
16892;SDS011;8563;52.242;9.098;2024-02-26T14:04:56;2.93;;;2.23;;
16892;SDS011;8563;52.242;9.098;2024-02-26T14:07:30;2.50;;;2.00;;
16892;SDS011;8563;52.242;9.098;2024-02-26T14:10:03;2.97;;;2.00;;
16892;SDS011;8563;52.242;9.098;2024-02-26T14:12:35;3.57;;;1.80;;
16892;SDS011;8563;52.242;9.098;2024-02-26T14:15:08;3.30;;;2.30;;
16892;SDS011;8563;52.242;9.098;2024-02-26T14:17:42;2.67;;;1.93;;
16892;SDS011;8563;52.242;9.098;2024-02-26T14:20:15;2.73;;;2.10;;
16892;SDS011;8563;52.242;9.098;2024-02-26T14:22:49;3.00;;;2.00;;
16892;SDS011;8563;52.242;9.098;2024-02-26T14:25:21;4.87;;;2.23;;
16892;SDS011;8563;52.242;9.098;2024-02-26T14:27:54;3.17;;;2.00;;
16892;SDS011;8563;52.242;9.098;2024-02-26T14:30:27;3.43;;;2.00;;
16892;SDS011;8563;52.242;9.098;2024-02-26T14:33:00;2.20;;;1.97;;
16892;SDS011;8563;52.242;9.098;2024-02-26T14:35:33;2.50;;;2.00;;
16892;SDS011;8563;52.242;9.098;2024-02-26T14:38:06;2.00;;;1.80;;
16892;SDS011;8563;52.242;9.098;2024-02-26T14:40:39;3.03;;;2.10;;
16892;SDS011;8563;52.242;9.098;2024-02-26T14:43:11;3.33;;;1.93;;
16892;SDS011;8563;52.242;9.098;2024-02-26T14:45:43;1.67;;;1.47;;
16892;SDS011;8563;52.242;9.098;2024-02-26T14:48:15;2.40;;;1.77;;
16892;SDS011;8563;52.242;9.098;2024-02-26T14:50:48;1.97;;;1.50;;
16892;SDS011;8563;52.242;9.098;2024-02-26T14:53:22;4.10;;;1.70;;
16892;SDS011;8563;52.242;9.098;2024-02-26T14:55:54;4.57;;;1.40;;
16892;SDS011;8563;52.242;9.098;2024-02-26T14:58:26;2.10;;;1.60;;
16892;SDS011;8563;52.242;9.098;2024-02-26T15:00:59;1.60;;;1.40;;
16892;SDS011;8563;52.242;9.098;2024-02-26T15:03:31;2.60;;;1.60;;
16892;SDS011;8563;52.242;9.098;2024-02-26T15:06:03;2.00;;;1.80;;
16892;SDS011;8563;52.242;9.098;2024-02-26T15:08:37;2.17;;;1.70;;
16892;SDS011;8563;52.242;9.098;2024-02-26T15:11:09;2.50;;;1.47;;
16892;SDS011;8563;52.242;9.098;2024-02-26T15:13:41;2.23;;;1.60;;
16892;SDS011;8563;52.242;9.098;2024-02-26T15:16:16;2.97;;;1.40;;
16892;SDS011;8563;52.242;9.098;2024-02-26T15:18:50;1.70;;;1.40;;
16892;SDS011;8563;52.242;9.098;2024-02-26T15:21:22;1.83;;;1.40;;
16892;SDS011;8563;52.242;9.098;2024-02-26T15:23:56;1.30;;;1.20;;
16892;SDS011;8563;52.242;9.098;2024-02-26T15:26:28;1.77;;;1.30;;
16892;SDS011;8563;52.242;9.098;2024-02-26T15:29:01;2.17;;;1.50;;
16892;SDS011;8563;52.242;9.098;2024-02-26T15:31:33;1.40;;;1.30;;
16892;SDS011;8563;52.242;9.098;2024-02-26T15:34:05;1.73;;;1.27;;
16892;SDS011;8563;52.242;9.098;2024-02-26T15:36:37;2.13;;;1.40;;
16892;SDS011;8563;52.242;9.098;2024-02-26T15:39:11;2.10;;;1.57;;
16892;SDS011;8563;52.242;9.098;2024-02-26T15:41:43;3.07;;;1.30;;